Fruitland, Texas
Current Conditions -  °F | °C
As of 2:55 PM on Saturday 25 Oct 2014 (Local Time) from K0F2 Reporting Station
Clear Clear  
Wind Chill: 88°   Ceiling: Unl
Heat Index: 88°   Visibility: 10mi
Dew Point: 58°   Wind: 6mph
Humidity: 36%   Direction: 230°SW
Pressure: 30.08"   Gusts: NA
Location:  33.5529°N, 97.8448°W
Report Text: K0F2 251955Z AUTO 23005KT 10SM CLR 31/14 A3008 RMK AO2 T03100142
Loading
Personal Weather Stations






























Interactive Weather Map
Tropical Storm Tracking
New forecast layout! Learn more

10-Day Weather Forecast

Advertisements
Track Severe Weather on mobile